createdAt,value
2023-05-06T00:00:03.934Z,1019.00
2023-05-06T00:01:04.824Z,1019.00
2023-05-06T00:02:05.713Z,1019.00
2023-05-06T00:03:06.642Z,1019.01
2023-05-06T00:04:07.797Z,1019.00
2023-05-06T00:05:08.521Z,1019.03
2023-05-06T00:06:09.068Z,1019.02
2023-05-06T00:07:09.950Z,1019.01
2023-05-06T00:08:10.819Z,1019.04
2023-05-06T00:09:11.726Z,1019.05
2023-05-06T00:10:12.640Z,1019.04
2023-05-06T00:11:13.490Z,1019.04
2023-05-06T00:12:14.369Z,1019.02
2023-05-06T00:13:15.425Z,1018.96
2023-05-06T00:14:15.841Z,1018.95
2023-05-06T00:15:16.717Z,1018.95
2023-05-06T00:16:17.619Z,1018.95
2023-05-06T00:17:18.471Z,1018.96
2023-05-06T00:18:19.381Z,1018.92
2023-05-06T00:19:20.364Z,1018.91
2023-05-06T00:20:21.218Z,1018.89
2023-05-06T00:21:22.099Z,1018.83
2023-05-06T00:22:22.985Z,1018.76
2023-05-06T00:23:23.858Z,1018.75
2023-05-06T00:24:24.746Z,1018.77
2023-05-06T00:25:25.632Z,1018.79
2023-05-06T00:26:26.492Z,1018.78
2023-05-06T00:27:27.376Z,1018.80
2023-05-06T00:28:28.269Z,1018.81
2023-05-06T00:29:29.154Z,1018.83
2023-05-06T00:30:30.062Z,1018.82
2023-05-06T00:31:30.968Z,1018.78
2023-05-06T00:32:31.821Z,1018.76
2023-05-06T00:33:32.705Z,1018.74
2023-05-06T00:34:33.607Z,1018.75
2023-05-06T00:35:34.467Z,1018.74
2023-05-06T00:36:35.356Z,1018.74
2023-05-06T00:37:36.286Z,1018.74
2023-05-06T00:38:37.149Z,1018.74
2023-05-06T00:39:38.027Z,1018.72
2023-05-06T00:40:38.907Z,1018.75
2023-05-06T00:41:39.792Z,1018.75
2023-05-06T00:42:40.680Z,1018.75
2023-05-06T00:43:41.563Z,1018.72
2023-05-06T00:44:42.435Z,1018.70
2023-05-06T00:45:43.356Z,1018.69
2023-05-06T00:46:44.318Z,1018.69
2023-05-06T00:47:45.223Z,1018.69
2023-05-06T00:48:46.080Z,1018.71
2023-05-06T00:49:47.051Z,1018.70
2023-05-06T00:50:47.889Z,1018.67
2023-05-06T00:51:48.786Z,1018.62
2023-05-06T00:52:49.679Z,1018.58
2023-05-06T00:53:50.561Z,1018.56
2023-05-06T00:54:51.442Z,1018.57
2023-05-06T00:55:52.393Z,1018.59
2023-05-06T00:56:53.243Z,1018.62
2023-05-06T00:57:54.114Z,1018.63
2023-05-06T00:58:54.991Z,1018.61
2023-05-06T00:59:55.896Z,1018.60
2023-05-06T01:00:56.817Z,1018.62
2023-05-06T01:01:57.695Z,1018.60
2023-05-06T01:02:58.779Z,1018.57
2023-05-06T01:03:59.343Z,1018.58
2023-05-06T01:04:59.880Z,1018.58
2023-05-06T01:06:00.751Z,1018.55
2023-05-06T01:07:01.667Z,1018.56
2023-05-06T01:08:02.520Z,1018.55
2023-05-06T01:09:03.407Z,1018.55
2023-05-06T01:10:04.279Z,1018.53
2023-05-06T01:11:05.169Z,1018.52
2023-05-06T01:12:06.054Z,1018.53
2023-05-06T01:13:06.999Z,1018.55
2023-05-06T01:14:07.896Z,1018.56
2023-05-06T01:15:09.212Z,1018.55
2023-05-06T01:16:09.705Z,1018.57
2023-05-06T01:17:10.741Z,1018.59
2023-05-06T01:18:11.121Z,1018.63
2023-05-06T01:19:12.032Z,1018.63
2023-05-06T01:20:12.970Z,1018.63
2023-05-06T01:21:13.896Z,1018.64
2023-05-06T01:22:14.788Z,1018.61
2023-05-06T01:23:15.682Z,1018.61
2023-05-06T01:24:16.585Z,1018.63
2023-05-06T01:25:17.486Z,1018.60
2023-05-06T01:26:18.406Z,1018.59
2023-05-06T01:27:19.290Z,1018.59
2023-05-06T01:28:20.171Z,1018.60
2023-05-06T01:29:21.056Z,1018.60
2023-05-06T01:30:21.952Z,1018.60
2023-05-06T01:31:22.896Z,1018.60
2023-05-06T01:32:23.828Z,1018.63
2023-05-06T01:33:24.756Z,1018.65
2023-05-06T01:34:25.657Z,1018.66
2023-05-06T01:35:26.638Z,1018.66
2023-05-06T01:36:27.449Z,1018.67
2023-05-06T01:37:28.328Z,1018.67
2023-05-06T01:38:28.976Z,1018.70
2023-05-06T01:39:29.855Z,1018.70
2023-05-06T01:40:30.736Z,1018.75
2023-05-06T01:41:31.612Z,1018.74
2023-05-06T01:42:32.506Z,1018.72
2023-05-06T01:43:33.375Z,1018.72
2023-05-06T01:44:34.310Z,1018.73
2023-05-06T01:45:35.168Z,1018.71
2023-05-06T01:46:36.071Z,1018.74
2023-05-06T01:47:36.993Z,1018.77
2023-05-06T01:48:37.850Z,1018.81
2023-05-06T01:49:38.756Z,1018.81
2023-05-06T01:50:39.724Z,1018.81
2023-05-06T01:51:40.546Z,1018.80
2023-05-06T01:52:41.418Z,1018.79
2023-05-06T01:53:42.315Z,1018.82
2023-05-06T01:54:43.280Z,1018.81
2023-05-06T01:55:44.194Z,1018.79
2023-05-06T01:56:45.080Z,1018.78
2023-05-06T01:57:45.951Z,1018.76
2023-05-06T01:58:46.822Z,1018.72
2023-05-06T01:59:47.703Z,1018.71
2023-05-06T02:00:48.582Z,1018.72
2023-05-06T02:01:49.599Z,1018.71
2023-05-06T02:02:50.486Z,1018.69
2023-05-06T02:03:51.464Z,1018.72
2023-05-06T02:04:51.851Z,1018.71
2023-05-06T02:05:52.758Z,1018.71
2023-05-06T02:06:53.339Z,1018.70
2023-05-06T02:07:54.217Z,1018.69
2023-05-06T02:08:55.103Z,1018.69
2023-05-06T02:09:55.978Z,1018.68
2023-05-06T02:10:56.862Z,1018.67
2023-05-06T02:11:57.749Z,1018.66
2023-05-06T02:12:58.698Z,1018.66
2023-05-06T02:13:59.586Z,1018.70
2023-05-06T02:15:00.466Z,1018.70
2023-05-06T02:16:01.349Z,1018.70
2023-05-06T02:17:02.234Z,1018.72
2023-05-06T02:18:03.133Z,1018.73
2023-05-06T02:19:03.993Z,1018.72
2023-05-06T02:20:04.866Z,1018.74
2023-05-06T02:21:05.849Z,1018.75
2023-05-06T02:22:06.673Z,1018.76
2023-05-06T02:23:07.556Z,1018.77
2023-05-06T02:24:08.439Z,1018.78
2023-05-06T02:25:09.615Z,1018.77
2023-05-06T02:26:10.180Z,1018.77
2023-05-06T02:27:11.067Z,1018.80
2023-05-06T02:28:11.931Z,1018.81
2023-05-06T02:29:12.814Z,1018.81
2023-05-06T02:30:13.687Z,1018.81
2023-05-06T02:31:14.642Z,1018.80
2023-05-06T02:32:15.527Z,1018.81
2023-05-06T02:33:16.408Z,1018.78
2023-05-06T02:34:17.361Z,1018.77
2023-05-06T02:35:18.191Z,1018.75
2023-05-06T02:36:19.178Z,1018.75
2023-05-06T02:37:19.989Z,1018.75
2023-05-06T02:38:20.879Z,1018.75
2023-05-06T02:39:21.757Z,1018.74
2023-05-06T02:40:22.690Z,1018.75
2023-05-06T02:41:23.540Z,1018.72
2023-05-06T02:42:24.477Z,1018.70
2023-05-06T02:43:25.340Z,1018.65
2023-05-06T02:44:26.198Z,1018.62
2023-05-06T02:45:27.102Z,1018.62
2023-05-06T02:46:27.967Z,1018.59
2023-05-06T02:47:28.887Z,1018.60
2023-05-06T02:48:29.761Z,1018.62
2023-05-06T02:49:30.634Z,1018.59
2023-05-06T02:50:31.532Z,1018.59
2023-05-06T02:51:32.428Z,1018.56
2023-05-06T02:52:33.287Z,1018.57
2023-05-06T02:53:34.194Z,1018.58
2023-05-06T02:54:35.054Z,1018.58
2023-05-06T02:55:35.938Z,1018.58
2023-05-06T02:56:36.825Z,1018.57
2023-05-06T02:57:37.691Z,1018.56
2023-05-06T02:58:38.581Z,1018.57
2023-05-06T02:59:39.457Z,1018.57
2023-05-06T03:00:40.354Z,1018.56
2023-05-06T03:01:41.281Z,1018.56
2023-05-06T03:02:42.153Z,1018.56
2023-05-06T03:03:43.007Z,1018.54
2023-05-06T03:04:43.916Z,1018.54
2023-05-06T03:05:44.786Z,1018.52
2023-05-06T03:06:45.759Z,1018.51
2023-05-06T03:07:46.587Z,1018.50
2023-05-06T03:08:47.526Z,1018.51
2023-05-06T03:09:48.394Z,1018.50
2023-05-06T03:10:49.255Z,1018.54
2023-05-06T03:11:50.141Z,1018.54
2023-05-06T03:12:51.077Z,1018.55
2023-05-06T03:13:51.943Z,1018.56
2023-05-06T03:14:52.826Z,1018.53
2023-05-06T03:15:53.738Z,1018.52
2023-05-06T03:16:54.619Z,1018.53
2023-05-06T03:17:55.642Z,1018.52
2023-05-06T03:18:56.052Z,1018.53
2023-05-06T03:19:56.936Z,1018.50
2023-05-06T03:20:57.842Z,1018.51
2023-05-06T03:21:58.803Z,1018.49
2023-05-06T03:22:59.707Z,1018.49
2023-05-06T03:24:00.558Z,1018.51
2023-05-06T03:25:01.435Z,1018.49
2023-05-06T03:26:02.321Z,1018.49
2023-05-06T03:27:03.209Z,1018.50
2023-05-06T03:28:04.086Z,1018.49
2023-05-06T03:29:04.970Z,1018.50
2023-05-06T03:30:05.856Z,1018.50
2023-05-06T03:31:06.759Z,1018.49
2023-05-06T03:32:07.679Z,1018.49
2023-05-06T03:33:08.560Z,1018.48
2023-05-06T03:34:09.367Z,1018.48
2023-05-06T03:35:10.467Z,1018.47
2023-05-06T03:36:10.959Z,1018.48
2023-05-06T03:37:11.903Z,1018.43
2023-05-06T03:38:12.666Z,1018.41
2023-05-06T03:39:13.512Z,1018.36
2023-05-06T03:40:14.313Z,1018.34
2023-05-06T03:41:15.191Z,1018.32
2023-05-06T03:42:16.118Z,1018.33
2023-05-06T03:43:16.977Z,1018.33
2023-05-06T03:44:17.816Z,1018.36
2023-05-06T03:45:18.650Z,1018.37
2023-05-06T03:46:19.577Z,1018.40
2023-05-06T03:47:20.394Z,1018.44
2023-05-06T03:48:21.207Z,1018.46
2023-05-06T03:49:22.037Z,1018.46
2023-05-06T03:50:22.875Z,1018.48
2023-05-06T03:51:23.702Z,1018.46
2023-05-06T03:52:24.609Z,1018.47
2023-05-06T03:53:25.368Z,1018.46
2023-05-06T03:54:26.192Z,1018.45
2023-05-06T03:55:27.024Z,1018.44
2023-05-06T03:56:27.880Z,1018.44
2023-05-06T03:57:28.688Z,1018.44
2023-05-06T03:58:29.526Z,1018.43
2023-05-06T03:59:30.337Z,1018.45
2023-05-06T04:00:31.234Z,1018.45
2023-05-06T04:01:32.029Z,1018.42
2023-05-06T04:02:32.922Z,1018.38
2023-05-06T04:03:33.827Z,1018.38
2023-05-06T04:04:34.672Z,1018.39
2023-05-06T04:05:35.512Z,1018.42
2023-05-06T04:06:36.345Z,1018.41
2023-05-06T04:07:37.283Z,1018.39
2023-05-06T04:08:38.049Z,1018.39
2023-05-06T04:09:38.962Z,1018.39
2023-05-06T04:10:39.747Z,1018.39
2023-05-06T04:11:40.564Z,1018.37
2023-05-06T04:12:41.435Z,1018.36
2023-05-06T04:13:42.252Z,1018.36
2023-05-06T04:14:43.061Z,1018.39
2023-05-06T04:15:43.887Z,1018.40
2023-05-06T04:16:44.749Z,1018.42
2023-05-06T04:17:45.589Z,1018.41
2023-05-06T04:18:46.380Z,1018.41
2023-05-06T04:19:47.277Z,1018.44
2023-05-06T04:20:48.058Z,1018.48
2023-05-06T04:21:48.883Z,1018.53
2023-05-06T04:22:49.829Z,1018.56
2023-05-06T04:23:50.624Z,1018.52
2023-05-06T04:24:51.429Z,1018.54
2023-05-06T04:25:52.254Z,1018.55
2023-05-06T04:26:53.083Z,1018.55
2023-05-06T04:27:53.943Z,1018.56
2023-05-06T04:28:54.747Z,1018.55
2023-05-06T04:29:55.572Z,1018.52
2023-05-06T04:30:56.407Z,1018.51
2023-05-06T04:31:57.268Z,1018.50
2023-05-06T04:32:57.975Z,1018.54
2023-05-06T04:33:58.771Z,1018.60
2023-05-06T04:34:59.598Z,1018.64
2023-05-06T04:36:00.420Z,1018.62
2023-05-06T04:37:01.254Z,1018.63
2023-05-06T04:38:02.233Z,1018.64
2023-05-06T04:39:03.007Z,1018.65
2023-05-06T04:40:03.833Z,1018.66
2023-05-06T04:41:04.718Z,1018.68
2023-05-06T04:42:05.505Z,1018.72
2023-05-06T04:43:06.339Z,1018.73
2023-05-06T04:44:07.185Z,1018.70
2023-05-06T04:45:08.129Z,1018.69
2023-05-06T04:46:08.649Z,1018.70
2023-05-06T04:47:09.483Z,1018.71
2023-05-06T04:48:10.335Z,1018.70
2023-05-06T04:49:12.531Z,1018.70
2023-05-06T04:50:12.013Z,1018.71
2023-05-06T04:51:12.816Z,1018.71
2023-05-06T04:52:13.662Z,1018.74
2023-05-06T04:53:14.577Z,1018.73
2023-05-06T04:54:15.391Z,1018.76
2023-05-06T04:55:16.191Z,1018.77
2023-05-06T04:56:17.022Z,1018.77
2023-05-06T04:57:17.841Z,1018.77
2023-05-06T04:58:18.673Z,1018.80
2023-05-06T04:59:19.491Z,1018.80
2023-05-06T05:00:20.332Z,1018.79
2023-05-06T05:01:21.217Z,1018.81
2023-05-06T05:02:22.118Z,1018.81
2023-05-06T05:03:23.084Z,1018.81
2023-05-06T05:04:23.975Z,1018.82
2023-05-06T05:05:24.759Z,1018.79
2023-05-06T05:06:25.596Z,1018.79
2023-05-06T05:07:26.417Z,1018.78
2023-05-06T05:08:27.325Z,1018.81
2023-05-06T05:09:28.091Z,1018.82
2023-05-06T05:10:28.929Z,1018.81
2023-05-06T05:11:29.760Z,1018.84
2023-05-06T05:12:30.595Z,1018.84
2023-05-06T05:13:31.418Z,1018.85
2023-05-06T05:14:32.243Z,1018.82
2023-05-06T05:15:33.119Z,1018.80
2023-05-06T05:16:33.962Z,1018.78
2023-05-06T05:17:34.757Z,1018.76
2023-05-06T05:18:35.589Z,1018.76
2023-05-06T05:19:36.386Z,1018.77
2023-05-06T05:20:37.244Z,1018.77
2023-05-06T05:21:38.059Z,1018.76
2023-05-06T05:22:38.884Z,1018.78
2023-05-06T05:23:39.827Z,1018.77
2023-05-06T05:24:40.653Z,1018.76
2023-05-06T05:25:41.456Z,1018.73
2023-05-06T05:26:42.288Z,1018.71
2023-05-06T05:27:43.160Z,1018.68
2023-05-06T05:28:43.952Z,1018.68
2023-05-06T05:29:44.785Z,1018.67
2023-05-06T05:30:45.665Z,1018.66
2023-05-06T05:31:46.558Z,1018.66
2023-05-06T05:32:47.451Z,1018.67
2023-05-06T05:33:48.352Z,1018.65
2023-05-06T05:34:49.151Z,1018.65
2023-05-06T05:35:49.984Z,1018.67
2023-05-06T05:36:50.834Z,1018.66
2023-05-06T05:37:51.659Z,1018.66
2023-05-06T05:38:52.597Z,1018.68
2023-05-06T05:39:53.391Z,1018.67
2023-05-06T05:40:54.206Z,1018.68
2023-05-06T05:41:55.038Z,1018.67
2023-05-06T05:42:55.864Z,1018.71
2023-05-06T05:43:56.700Z,1018.74
2023-05-06T05:44:57.516Z,1018.74
2023-05-06T05:45:58.351Z,1018.74
2023-05-06T05:46:59.196Z,1018.75
2023-05-06T05:48:00.023Z,1018.75
2023-05-06T05:49:00.891Z,1018.73
2023-05-06T05:50:01.717Z,1018.72
2023-05-06T05:51:02.522Z,1018.72
2023-05-06T05:52:03.389Z,1018.77
2023-05-06T05:53:04.179Z,1018.77
2023-05-06T05:54:05.024Z,1018.79
2023-05-06T05:55:05.859Z,1018.82
2023-05-06T05:56:06.667Z,1018.85
2023-05-06T05:57:07.516Z,1018.84
2023-05-06T05:58:08.330Z,1018.84
2023-05-06T05:59:09.161Z,1018.82
2023-05-06T06:00:11.607Z,1018.77
2023-05-06T06:01:10.701Z,1018.74
2023-05-06T06:02:11.520Z,1018.72
2023-05-06T06:03:12.517Z,1018.71
2023-05-06T06:04:12.946Z,1018.69
2023-05-06T06:05:13.756Z,1018.68
2023-05-06T06:06:14.568Z,1018.66
2023-05-06T06:07:15.410Z,1018.66
2023-05-06T06:08:16.263Z,1018.66
2023-05-06T06:09:17.209Z,1018.66
2023-05-06T06:10:17.979Z,1018.61
2023-05-06T06:11:18.820Z,1018.60
2023-05-06T06:12:19.660Z,1018.58
2023-05-06T06:13:20.721Z,1018.56
2023-05-06T06:14:21.071Z,1018.57
2023-05-06T06:15:21.883Z,1018.54
2023-05-06T06:16:22.764Z,1018.54
2023-05-06T06:17:23.681Z,1018.54
2023-05-06T06:18:24.454Z,1018.56
2023-05-06T06:19:25.282Z,1018.55
2023-05-06T06:20:26.121Z,1018.52
2023-05-06T06:21:26.942Z,1018.50
2023-05-06T06:22:27.774Z,1018.51
2023-05-06T06:23:28.588Z,1018.51
2023-05-06T06:24:29.623Z,1018.52
2023-05-06T06:25:30.384Z,1018.53
2023-05-06T06:26:31.241Z,1018.54
2023-05-06T06:27:32.060Z,1018.55
2023-05-06T06:28:32.873Z,1018.55
2023-05-06T06:29:33.689Z,1018.54
2023-05-06T06:30:34.533Z,1018.57
2023-05-06T06:31:35.534Z,1018.57
2023-05-06T06:32:36.069Z,1018.60
2023-05-06T06:33:36.884Z,1018.63
2023-05-06T06:34:37.726Z,1018.61
2023-05-06T06:35:38.545Z,1018.62
2023-05-06T06:36:39.367Z,1018.61
2023-05-06T06:37:40.192Z,1018.63
2023-05-06T06:38:41.009Z,1018.63
2023-05-06T06:39:41.868Z,1018.63
2023-05-06T06:40:42.735Z,1018.63
2023-05-06T06:41:43.526Z,1018.64
2023-05-06T06:42:44.354Z,1018.65
2023-05-06T06:43:45.184Z,1018.63
2023-05-06T06:44:46.027Z,1018.63
2023-05-06T06:45:46.904Z,1018.64
2023-05-06T06:46:47.700Z,1018.65
2023-05-06T06:47:48.562Z,1018.65
2023-05-06T06:48:49.451Z,1018.67
2023-05-06T06:49:50.235Z,1018.68
2023-05-06T06:50:51.053Z,1018.67
2023-05-06T06:51:51.896Z,1018.66
2023-05-06T06:52:52.706Z,1018.69
2023-05-06T06:53:53.536Z,1018.70
2023-05-06T06:54:54.385Z,1018.69
2023-05-06T06:55:55.194Z,1018.65
2023-05-06T06:56:56.022Z,1018.63
2023-05-06T06:57:56.884Z,1018.60
2023-05-06T06:58:57.713Z,1018.62
2023-05-06T06:59:58.545Z,1018.61
2023-05-06T07:00:59.409Z,1018.60
2023-05-06T07:02:00.200Z,1018.61
2023-05-06T07:03:01.118Z,1018.61
2023-05-06T07:04:01.935Z,1018.60
2023-05-06T07:05:02.741Z,1018.61
2023-05-06T07:06:03.598Z,1018.62
2023-05-06T07:07:04.398Z,1018.62
2023-05-06T07:08:05.228Z,1018.63
2023-05-06T07:09:06.079Z,1018.65
2023-05-06T07:10:06.997Z,1018.64
2023-05-06T07:11:07.793Z,1018.66
2023-05-06T07:12:08.600Z,1018.69
2023-05-06T07:13:09.464Z,1018.69
2023-05-06T07:14:10.294Z,1018.68
2023-05-06T07:15:11.348Z,1018.68
2023-05-06T07:16:11.804Z,1018.67
2023-05-06T07:17:12.725Z,1018.69
2023-05-06T07:18:13.677Z,1018.69
2023-05-06T07:19:14.509Z,1018.72
2023-05-06T07:20:15.339Z,1018.72
2023-05-06T07:21:16.157Z,1018.72
2023-05-06T07:22:17.005Z,1018.70
2023-05-06T07:23:17.833Z,1018.73
2023-05-06T07:24:18.653Z,1018.69
2023-05-06T07:25:19.630Z,1018.65
2023-05-06T07:26:20.420Z,1018.69
2023-05-06T07:27:21.242Z,1018.69
2023-05-06T07:28:22.071Z,1018.63
2023-05-06T07:29:22.900Z,1018.62
2023-05-06T07:30:23.749Z,1018.62
2023-05-06T07:31:24.574Z,1018.66
2023-05-06T07:32:25.433Z,1018.66
2023-05-06T07:33:26.251Z,1018.63
2023-05-06T07:34:27.058Z,1018.67
2023-05-06T07:35:27.893Z,1018.67
2023-05-06T07:36:28.783Z,1018.66
2023-05-06T07:37:29.568Z,1018.67
2023-05-06T07:38:30.397Z,1018.68
2023-05-06T07:39:31.214Z,1018.70
2023-05-06T07:40:32.134Z,1018.70
2023-05-06T07:41:32.928Z,1018.72
2023-05-06T07:42:33.741Z,1018.70
2023-05-06T07:43:34.571Z,1018.70
2023-05-06T07:44:35.401Z,1018.69
2023-05-06T07:45:36.300Z,1018.73
2023-05-06T07:46:37.158Z,1018.71
2023-05-06T07:47:38.007Z,1018.70
2023-05-06T07:48:38.818Z,1018.72
2023-05-06T07:49:39.656Z,1018.74
2023-05-06T07:50:40.490Z,1018.74
2023-05-06T07:51:41.327Z,1018.76
2023-05-06T07:52:42.159Z,1018.75
2023-05-06T07:53:42.968Z,1018.76
2023-05-06T07:54:43.817Z,1018.75
2023-05-06T07:55:44.724Z,1018.75
2023-05-06T07:56:45.486Z,1018.74
2023-05-06T07:57:46.316Z,1018.74
2023-05-06T07:58:47.175Z,1018.77
2023-05-06T07:59:47.986Z,1018.76
2023-05-06T08:00:48.855Z,1018.79
2023-05-06T08:01:49.645Z,1018.79
2023-05-06T08:02:50.548Z,1018.78
2023-05-06T08:03:51.408Z,1018.78
2023-05-06T08:04:52.305Z,1018.78
2023-05-06T08:05:53.190Z,1018.76
2023-05-06T08:06:54.015Z,1018.81
2023-05-06T08:07:54.842Z,1018.81
2023-05-06T08:08:55.671Z,1018.79
2023-05-06T08:09:56.537Z,1018.79
2023-05-06T08:10:57.421Z,1018.78
2023-05-06T08:11:58.219Z,1018.78
2023-05-06T08:12:59.053Z,1018.77
2023-05-06T08:13:59.856Z,1018.77
2023-05-06T08:15:00.696Z,1018.81
2023-05-06T08:16:01.561Z,1018.79
2023-05-06T08:17:02.360Z,1018.80
2023-05-06T08:18:13.777Z,1018.85
2023-05-06T08:19:04.910Z,1018.86
2023-05-06T08:20:04.782Z,1018.89
2023-05-06T08:21:05.568Z,1018.89
2023-05-06T08:22:06.406Z,1018.89
2023-05-06T08:23:07.228Z,1018.88
2023-05-06T08:24:08.062Z,1018.91
2023-05-06T08:25:09.068Z,1018.91
2023-05-06T08:26:09.712Z,1018.90
2023-05-06T08:27:10.522Z,1018.89
2023-05-06T08:28:11.334Z,1018.94
2023-05-06T08:29:12.175Z,1018.95
2023-05-06T08:30:13.010Z,1019.00
2023-05-06T08:31:13.854Z,1019.02
2023-05-06T08:32:14.659Z,1019.05
2023-05-06T08:33:15.487Z,1019.07
2023-05-06T08:34:16.350Z,1019.08
2023-05-06T08:35:17.151Z,1019.10
2023-05-06T08:36:17.988Z,1019.10
2023-05-06T08:37:18.824Z,1019.10
2023-05-06T08:38:19.647Z,1019.11
2023-05-06T08:39:20.485Z,1019.11
2023-05-06T08:40:21.444Z,1019.13
2023-05-06T08:41:22.028Z,1019.16
2023-05-06T08:42:22.838Z,1019.17
2023-05-06T08:43:23.635Z,1019.17
2023-05-06T08:44:24.473Z,1019.22
2023-05-06T08:45:27.357Z,1019.23
2023-05-06T08:46:26.025Z,1019.24
2023-05-06T08:47:26.869Z,1019.25
2023-05-06T08:48:27.676Z,1019.28
2023-05-06T08:49:28.484Z,1019.29
2023-05-06T08:50:29.361Z,1019.30
2023-05-06T08:51:30.160Z,1019.32
2023-05-06T08:52:31.001Z,1019.31
2023-05-06T08:53:31.820Z,1019.32
2023-05-06T08:54:32.663Z,1019.34
2023-05-06T08:55:33.473Z,1019.34
2023-05-06T08:56:34.350Z,1019.35
2023-05-06T08:57:35.142Z,1019.36
2023-05-06T08:58:35.967Z,1019.38
2023-05-06T08:59:36.809Z,1019.38
2023-05-06T09:00:37.616Z,1019.42
2023-05-06T09:01:38.516Z,1019.44
2023-05-06T09:02:42.181Z,1019.47
2023-05-06T09:03:39.994Z,1019.50
2023-05-06T09:04:40.796Z,1019.51
2023-05-06T09:05:41.621Z,1019.54
2023-05-06T09:06:42.464Z,1019.56
2023-05-06T09:07:43.288Z,1019.55
2023-05-06T09:08:44.108Z,1019.55
2023-05-06T09:09:44.972Z,1019.58
2023-05-06T09:10:45.815Z,1019.57
2023-05-06T09:11:46.782Z,1019.58
2023-05-06T09:12:47.546Z,1019.56
2023-05-06T09:13:48.369Z,1019.55
2023-05-06T09:14:49.185Z,1019.53
2023-05-06T09:15:50.036Z,1019.52
2023-05-06T09:16:50.914Z,1019.53
2023-05-06T09:17:51.761Z,1019.52
2023-05-06T09:18:52.549Z,1019.48
2023-05-06T09:19:53.387Z,1019.47
2023-05-06T09:20:54.213Z,1019.47
2023-05-06T09:21:55.034Z,1019.46
2023-05-06T09:22:55.864Z,1019.46
2023-05-06T09:23:56.711Z,1019.41
2023-05-06T09:24:57.533Z,1019.41
2023-05-06T09:25:58.346Z,1019.39
2023-05-06T09:26:59.264Z,1019.37
2023-05-06T09:28:00.076Z,1019.37
2023-05-06T09:29:00.881Z,1019.36
2023-05-06T09:30:01.831Z,1019.36
2023-05-06T09:31:02.685Z,1019.37
2023-05-06T09:32:03.470Z,1019.36
2023-05-06T09:33:04.369Z,1019.35
2023-05-06T09:34:05.194Z,1019.32
2023-05-06T09:35:06.022Z,1019.29
2023-05-06T09:36:06.866Z,1019.28
2023-05-06T09:37:07.673Z,1019.24
2023-05-06T09:38:08.532Z,1019.20
2023-05-06T09:39:09.356Z,1019.18
2023-05-06T09:40:10.205Z,1019.14
2023-05-06T09:41:11.085Z,1019.10
2023-05-06T09:42:11.918Z,1019.08
2023-05-06T09:43:12.735Z,1019.07
2023-05-06T09:44:13.571Z,1019.07
2023-05-06T09:45:14.402Z,1019.06
2023-05-06T09:46:15.259Z,1019.03
2023-05-06T09:47:16.097Z,1019.02
2023-05-06T09:48:16.941Z,1019.03
2023-05-06T09:49:17.728Z,1019.02
2023-05-06T09:50:18.614Z,1019.01
2023-05-06T09:51:19.382Z,1018.99
2023-05-06T09:52:20.249Z,1019.00
2023-05-06T09:53:21.060Z,1018.99
2023-05-06T09:54:21.877Z,1018.98
2023-05-06T09:55:22.714Z,1018.99
2023-05-06T09:56:23.542Z,1019.00
2023-05-06T09:57:24.468Z,1018.98
2023-05-06T09:58:25.218Z,1018.96
2023-05-06T09:59:26.048Z,1018.97
2023-05-06T10:00:26.949Z,1018.97
2023-05-06T10:01:36.037Z,1018.95
2023-05-06T10:02:29.614Z,1018.98
2023-05-06T10:03:29.206Z,1018.98
2023-05-06T10:04:29.790Z,1018.99
2023-05-06T10:05:30.400Z,1018.98
2023-05-06T10:06:30.793Z,1018.99
2023-05-06T10:07:31.655Z,1018.98
2023-05-06T10:08:32.465Z,1018.98
2023-05-06T10:09:33.288Z,1018.99
2023-05-06T10:10:34.109Z,1019.00
2023-05-06T10:11:34.943Z,1019.02
2023-05-06T10:12:35.995Z,1019.02
2023-05-06T10:13:36.297Z,1019.03
2023-05-06T10:14:37.115Z,1019.03
2023-05-06T10:15:37.945Z,1019.00
2023-05-06T10:16:38.830Z,1019.02
2023-05-06T10:17:39.630Z,1018.99
2023-05-06T10:18:40.410Z,1018.96
2023-05-06T10:19:41.238Z,1018.95
2023-05-06T10:20:42.110Z,1018.95
2023-05-06T10:21:42.977Z,1018.95
2023-05-06T10:22:43.762Z,1018.95
2023-05-06T10:23:44.592Z,1018.97
2023-05-06T10:24:45.408Z,1019.00
2023-05-06T10:25:46.335Z,1018.96
2023-05-06T10:26:47.100Z,1018.97
2023-05-06T10:27:48.081Z,1018.96
2023-05-06T10:28:48.930Z,1018.94
2023-05-06T10:29:49.770Z,1018.92
2023-05-06T10:30:50.588Z,1018.90
2023-05-06T10:31:51.475Z,1018.92
2023-05-06T10:32:52.344Z,1018.92
2023-05-06T10:33:53.260Z,1018.91
2023-05-06T10:34:54.050Z,1018.88
2023-05-06T10:35:54.872Z,1018.88
2023-05-06T10:36:55.704Z,1018.86
2023-05-06T10:37:56.544Z,1018.86
2023-05-06T10:38:57.403Z,1018.84
2023-05-06T10:39:58.222Z,1018.82
2023-05-06T10:40:59.050Z,1018.78
2023-05-06T10:41:59.860Z,1018.79
2023-05-06T10:43:00.704Z,1018.77
2023-05-06T10:44:01.514Z,1018.78
2023-05-06T10:45:02.376Z,1018.81
2023-05-06T10:46:03.243Z,1018.80
2023-05-06T10:47:04.095Z,1018.78
2023-05-06T10:48:04.975Z,1018.77
2023-05-06T10:49:05.775Z,1018.74
2023-05-06T10:50:06.610Z,1018.71
2023-05-06T10:51:07.429Z,1018.69
2023-05-06T10:52:08.267Z,1018.70
2023-05-06T10:53:09.084Z,1018.67
2023-05-06T10:54:09.917Z,1018.67
2023-05-06T10:55:11.022Z,1018.67
2023-05-06T10:56:11.430Z,1018.63
2023-05-06T10:57:12.257Z,1018.62
2023-05-06T10:58:13.112Z,1018.63
2023-05-06T10:59:13.930Z,1018.59
2023-05-06T11:00:14.765Z,1018.58
2023-05-06T11:01:15.618Z,1018.58
2023-05-06T11:02:16.483Z,1018.57
2023-05-06T11:03:17.375Z,1018.53
2023-05-06T11:04:18.198Z,1018.51
2023-05-06T11:05:19.026Z,1018.48
2023-05-06T11:06:19.873Z,1018.45
2023-05-06T11:07:20.680Z,1018.45
2023-05-06T11:08:21.516Z,1018.42
2023-05-06T11:09:22.348Z,1018.40
2023-05-06T11:10:23.172Z,1018.42
2023-05-06T11:11:23.984Z,1018.44
2023-05-06T11:12:24.837Z,1018.47
2023-05-06T11:13:25.968Z,1018.44
2023-05-06T11:14:26.451Z,1018.44
2023-05-06T11:15:27.284Z,1018.40
2023-05-06T11:16:28.144Z,1018.41
2023-05-06T11:17:29.022Z,1018.42
2023-05-06T11:18:29.839Z,1018.38
2023-05-06T11:19:30.651Z,1018.37
2023-05-06T11:20:31.493Z,1018.38
2023-05-06T11:21:32.294Z,1018.39
2023-05-06T11:22:33.130Z,1018.38
2023-05-06T11:23:33.950Z,1018.40
2023-05-06T11:24:34.788Z,1018.40
2023-05-06T11:25:35.639Z,1018.37
2023-05-06T11:26:36.486Z,1018.33
2023-05-06T11:27:37.306Z,1018.35
2023-05-06T11:28:38.154Z,1018.34
2023-05-06T11:29:38.991Z,1018.31
2023-05-06T11:30:39.841Z,1018.32
2023-05-06T11:31:40.662Z,1018.33
2023-05-06T11:32:41.500Z,1018.36
2023-05-06T11:33:42.312Z,1018.35
2023-05-06T11:34:43.143Z,1018.36
2023-05-06T11:35:43.973Z,1018.31
2023-05-06T11:36:44.800Z,1018.28
2023-05-06T11:37:45.686Z,1018.22
2023-05-06T11:38:46.471Z,1018.19
2023-05-06T11:39:47.290Z,1018.19
2023-05-06T11:40:48.139Z,1018.23
2023-05-06T11:41:48.981Z,1018.23
2023-05-06T11:42:49.785Z,1018.24
2023-05-06T11:43:50.774Z,1018.25
2023-05-06T11:44:51.555Z,1018.23
2023-05-06T11:45:52.457Z,1018.20
2023-05-06T11:46:53.280Z,1018.20
2023-05-06T11:47:54.186Z,1018.20
2023-05-06T11:48:54.999Z,1018.21
2023-05-06T11:49:55.821Z,1018.17
2023-05-06T11:50:56.647Z,1018.14
2023-05-06T11:51:57.481Z,1018.11
2023-05-06T11:52:58.312Z,1018.08
2023-05-06T11:53:59.124Z,1018.03
2023-05-06T11:54:59.958Z,1018.01
2023-05-06T11:56:00.789Z,1018.01
2023-05-06T11:57:01.611Z,1018.00
2023-05-06T11:58:02.461Z,1018.01
2023-05-06T11:59:03.361Z,1018.01
2023-05-06T12:00:04.131Z,1018.00
2023-05-06T12:01:04.986Z,1017.99
2023-05-06T12:02:05.815Z,1017.99
2023-05-06T12:03:06.681Z,1017.98
2023-05-06T12:04:07.762Z,1017.95
2023-05-06T12:05:08.221Z,1017.95
2023-05-06T12:06:09.017Z,1017.94
2023-05-06T12:07:09.872Z,1017.92
2023-05-06T12:08:23.452Z,1017.93
2023-05-06T12:09:12.424Z,1017.89
2023-05-06T12:10:12.475Z,1017.91
2023-05-06T12:11:13.062Z,1017.88
2023-05-06T12:12:13.882Z,1017.86
2023-05-06T12:13:14.765Z,1017.85
2023-05-06T12:14:15.790Z,1017.83
2023-05-06T12:15:16.546Z,1017.81